Hovedside
METAR-TAF:

METAR-TAF

Lufthavner :

Cuenca, Ecuador

breddegrad: 02-53-22S, lengdegrad: 078-59-04W, høyde over havet: 2532 m

Gjeldene værobservasjon

Denne rapporten ble laget for 1 time og 9 minutter siden, klokken 15:00 UTC
Vind 4 kt fra Nordøst
Temperatur 19°C
Luftfuktighet 78%
Trykk 1028 hPa
Sikt 10 km eller mer
Få skyer i en høyde av 3000 ft
Brutte skyer i en høyde av 9000 ft

METAR: SECU 041500Z 05004KT 9999 FEW030 BKN090 19/15 Q1028

Tid: 11:09 (16:09 UTC)


TAF: fraværende

Værobservasjoner og værvarsel for over 4000 flyplasser (METAR- og TAF-rapporter).

Tilgjengelige stasjoner er representert av de røde og gule prikkene på kartet.

Hold musepekeren over prikken for å se navnet på stasjonen.

Klikk så for å se værobservasjoner og -varsler.

For å forandre kartet kan du klikke på den grønne knappen med svart kryss for å zoome inn, på den grønne knappen med strek for å zoome ut, eller på de grønne pilene for å se tilstøtende kart.


METAR-TAF: